Washington, Wisconsin
Current Conditions -  °F | °C
As of 11:50 AM on Friday 28 Nov 2014 (Local Time) from KEGV Reporting Station
Light Snow Light Snow  
Wind Chill: 12°   Ceiling: 2500
Heat Index: 12°   Visibility: 4mi
Dew Point:   Wind: 0mph
Humidity: 80%   Direction: NA
Pressure: 29.97"   Gusts: NA
Location:  45.9065°N, 89.2784°W
Report Text: KEGV 281750Z AUTO 00000KT 4SM -SN OVC025 M11/M14 A2997 RMK AO2 T11121141 11112 21146
Loading
Personal Weather Stations






























Interactive Weather Map New forecast layout! Learn more

10-Day Weather Forecast

Advertisements
Track Severe Weather on mobile